Everglades City, Florida
Current Conditions -  °F | °C
As of 12:53 AM on Tuesday 27 Jan 2015 (Local Time) from KAPF Reporting Station
Clear Clear  
Wind Chill: 63°   Ceiling: Unl
Heat Index: 63°   Visibility: 10mi
Dew Point: 47°   Wind: 14mph
Humidity: 56%   Direction: 310°NW
Pressure: 29.99"   Gusts: 26mph
Location:  25.86°N, 81.38°W
Report Text: KAPF 270553Z 31012G23KT 10SM CLR 17/08 A2999 RMK AO2 PK WND 32026/0504 SLP155 T01720083 10183 20172 50006
Loading
Personal Weather Stations






























Interactive Weather Map New forecast layout! Learn more

10-Day Weather Forecast

Advertisements
Track Severe Weather on mobile